Terminal Aerodrome Forecast
Issued by NWS

Home | Current Version | Previous Version | Text Only | Print | Product List | Glossary On
Versions: 1 2 3 4 5 6 7 8 9 10 11 12 13 14 15 16 17
000
FTPA31 PHFO 071137
TAFHNY
TAF
PHNY 071137Z 0712/0812 06006KT P6SM FEW020 BKN050
     FM072000 25005KT P6SM VCSH BKN020 OVC035
      TEMPO 0721/0801 -SHRA BKN015
     FM080400 VRB04KT P6SM VCSH SCT020 BKN040 BKN150=

USA.gov is the U.S. government's official web portal to all federal, state and local government web resources and services.